createdAt,value
2022-12-18T00:01:28.442Z,-4.00
2022-12-18T00:03:56.705Z,-4.00
2022-12-18T00:06:24.874Z,-4.00
2022-12-18T00:08:52.878Z,-4.00
2022-12-18T00:11:22.244Z,-4.10
2022-12-18T00:13:49.609Z,-4.10
2022-12-18T00:16:21.502Z,-4.10
2022-12-18T00:18:52.745Z,-4.10
2022-12-18T00:21:20.408Z,-4.10
2022-12-18T00:23:48.602Z,-4.20
2022-12-18T00:26:18.145Z,-4.20
2022-12-18T00:28:45.798Z,-4.20
2022-12-18T00:31:14.848Z,-4.20
2022-12-18T00:33:42.438Z,-4.20
2022-12-18T00:36:18.358Z,-4.20
2022-12-18T00:38:45.903Z,-4.30
2022-12-18T00:41:14.842Z,-4.30
2022-12-18T00:43:42.101Z,-4.30
2022-12-18T00:46:09.067Z,-4.30
2022-12-18T00:48:36.489Z,-4.30
2022-12-18T00:51:03.387Z,-4.30
2022-12-18T00:53:30.178Z,-4.40
2022-12-18T00:55:56.959Z,-4.40
2022-12-18T00:58:23.725Z,-4.40
2022-12-18T01:00:50.582Z,-4.40
2022-12-18T01:03:17.446Z,-4.40
2022-12-18T01:05:44.405Z,-4.50
2022-12-18T01:08:11.230Z,-4.40
2022-12-18T01:10:41.878Z,-4.50
2022-12-18T01:13:08.764Z,-4.50
2022-12-18T01:15:36.086Z,-4.50
2022-12-18T01:18:03.015Z,-4.50
2022-12-18T01:20:29.830Z,-4.50
2022-12-18T01:22:56.579Z,-4.50
2022-12-18T01:25:23.373Z,-4.50
2022-12-18T01:27:50.321Z,-4.60
2022-12-18T01:30:17.113Z,-4.60
2022-12-18T01:32:43.890Z,-4.60
2022-12-18T01:35:10.690Z,-4.70
2022-12-18T01:37:37.474Z,-4.60
2022-12-18T01:40:04.796Z,-4.60
2022-12-18T01:42:31.555Z,-4.60
2022-12-18T01:45:12.511Z,-4.60
2022-12-18T01:47:46.258Z,-4.70
2022-12-18T01:50:26.633Z,-4.70
2022-12-18T01:53:03.883Z,-4.70
2022-12-18T01:55:32.956Z,-4.70
2022-12-18T01:58:00.434Z,-4.70
2022-12-18T02:00:27.964Z,-4.70
2022-12-18T02:02:55.227Z,-4.70
2022-12-18T02:05:37.603Z,-4.70
2022-12-18T02:08:22.331Z,-4.80
2022-12-18T02:11:04.338Z,-4.80
2022-12-18T02:13:47.823Z,-4.80
2022-12-18T02:16:26.746Z,-4.80
2022-12-18T02:18:59.140Z,-4.90
2022-12-18T02:21:48.991Z,-4.90
2022-12-18T02:24:49.106Z,-4.90
2022-12-18T02:27:16.365Z,-4.90
2022-12-18T02:29:58.210Z,-5.00
2022-12-18T02:32:28.735Z,-5.00
2022-12-18T02:35:00.944Z,-5.00
2022-12-18T02:37:29.074Z,-5.10
2022-12-18T02:39:57.574Z,-5.10
2022-12-18T02:42:24.767Z,-5.10
2022-12-18T02:44:52.868Z,-5.10
2022-12-18T02:47:22.119Z,-5.10
2022-12-18T02:50:19.486Z,-5.10
2022-12-18T02:53:01.468Z,-5.10
2022-12-18T02:55:43.418Z,-5.20
2022-12-18T02:58:43.724Z,-5.20
2022-12-18T03:01:21.295Z,-5.20
2022-12-18T03:03:48.148Z,-5.20
2022-12-18T03:06:22.350Z,-5.30
2022-12-18T03:08:53.830Z,-5.30
2022-12-18T03:11:40.821Z,-5.30
2022-12-18T03:14:08.557Z,-5.30
2022-12-18T03:16:36.226Z,-5.30
2022-12-18T03:19:08.281Z,-5.30
2022-12-18T03:21:40.520Z,-5.30
2022-12-18T03:24:09.267Z,-5.30
2022-12-18T03:26:38.478Z,-5.30
2022-12-18T03:29:11.354Z,-5.30
2022-12-18T03:31:41.476Z,-5.30
2022-12-18T03:34:16.794Z,-5.30
2022-12-18T03:36:43.788Z,-5.30
2022-12-18T03:39:10.598Z,-5.30
2022-12-18T03:42:08.525Z,-5.30
2022-12-18T03:45:00.390Z,-5.40
2022-12-18T03:47:36.787Z,-5.40
2022-12-18T03:50:12.997Z,-5.40
2022-12-18T03:52:45.674Z,-5.50
2022-12-18T03:55:13.356Z,-5.50
2022-12-18T03:57:40.554Z,-5.60
2022-12-18T04:00:11.308Z,-5.60
2022-12-18T04:02:39.529Z,-5.60
2022-12-18T04:05:08.263Z,-5.60
2022-12-18T04:07:35.904Z,-5.60
2022-12-18T04:10:03.775Z,-5.60
2022-12-18T04:12:31.048Z,-5.60
2022-12-18T04:14:57.867Z,-5.60
2022-12-18T04:17:24.886Z,-5.60
2022-12-18T04:19:51.819Z,-5.60
2022-12-18T04:22:18.811Z,-5.60
2022-12-18T04:24:45.617Z,-5.60
2022-12-18T04:27:12.399Z,-5.60
2022-12-18T04:29:39.180Z,-5.60
2022-12-18T04:32:06.153Z,-5.70
2022-12-18T04:34:32.947Z,-5.70
2022-12-18T04:37:00.719Z,-5.60
2022-12-18T04:39:27.559Z,-5.70
2022-12-18T04:41:54.338Z,-5.70
2022-12-18T04:44:21.220Z,-5.70
2022-12-18T04:46:48.039Z,-5.70
2022-12-18T04:49:15.521Z,-5.70
2022-12-18T04:51:42.320Z,-5.70
2022-12-18T04:54:09.078Z,-5.70
2022-12-18T04:56:35.859Z,-5.80
2022-12-18T04:59:02.675Z,-5.80
2022-12-18T05:01:34.303Z,-5.90
2022-12-18T05:04:02.683Z,-5.90
2022-12-18T05:06:29.602Z,-5.90
2022-12-18T05:08:56.519Z,-5.90
2022-12-18T05:11:23.366Z,-5.90
2022-12-18T05:13:50.287Z,-5.90
2022-12-18T05:16:17.297Z,-5.90
2022-12-18T05:18:44.364Z,-5.90
2022-12-18T05:21:11.187Z,-5.90
2022-12-18T05:23:38.290Z,-5.90
2022-12-18T05:26:06.751Z,-5.90
2022-12-18T05:28:35.374Z,-5.80
2022-12-18T05:31:04.814Z,-5.80
2022-12-18T05:33:33.477Z,-5.80
2022-12-18T05:36:01.756Z,-5.80
2022-12-18T05:38:30.017Z,-5.80
2022-12-18T05:40:57.393Z,-5.80
2022-12-18T05:43:24.867Z,-5.80
2022-12-18T05:45:52.330Z,-5.80
2022-12-18T05:48:19.461Z,-5.70
2022-12-18T05:50:47.496Z,-5.80
2022-12-18T05:53:16.133Z,-5.70
2022-12-18T05:55:43.994Z,-5.80
2022-12-18T05:58:12.521Z,-5.80
2022-12-18T06:00:41.548Z,-5.80
2022-12-18T06:03:09.711Z,-5.90
2022-12-18T06:05:38.302Z,-5.90
2022-12-18T06:08:05.438Z,-5.90
2022-12-18T06:10:33.382Z,-6.00
2022-12-18T06:13:00.702Z,-6.00
2022-12-18T06:15:27.541Z,-6.00
2022-12-18T06:17:54.344Z,-6.00
2022-12-18T06:20:21.517Z,-6.00
2022-12-18T06:22:48.311Z,-6.00
2022-12-18T06:25:15.126Z,-6.00
2022-12-18T06:27:42.236Z,-6.00
2022-12-18T06:30:11.058Z,-6.00
2022-12-18T06:32:38.111Z,-6.00
2022-12-18T06:35:05.338Z,-6.00
2022-12-18T06:37:32.558Z,-6.00
2022-12-18T06:39:59.464Z,-6.00
2022-12-18T06:42:26.300Z,-6.00
2022-12-18T06:44:53.268Z,-6.00
2022-12-18T06:47:20.064Z,-6.00
2022-12-18T06:49:46.823Z,-6.00
2022-12-18T06:52:13.609Z,-6.00
2022-12-18T06:54:40.399Z,-6.00
2022-12-18T06:57:07.166Z,-6.00
2022-12-18T06:59:34.146Z,-6.10
2022-12-18T07:02:01.041Z,-6.00
2022-12-18T07:04:31.846Z,-6.00
2022-12-18T07:06:58.680Z,-6.00
2022-12-18T07:09:31.668Z,-6.00
2022-12-18T07:11:58.469Z,-6.00
2022-12-18T07:14:26.291Z,-6.00
2022-12-18T07:16:53.082Z,-6.00
2022-12-18T07:19:20.159Z,-6.00
2022-12-18T07:21:48.057Z,-6.00
2022-12-18T07:24:15.348Z,-6.00
2022-12-18T07:26:42.151Z,-6.00
2022-12-18T07:29:09.124Z,-6.00
2022-12-18T07:31:35.916Z,-6.00
2022-12-18T07:34:02.835Z,-6.10
2022-12-18T07:36:29.602Z,-6.10
2022-12-18T07:38:57.083Z,-6.10
2022-12-18T07:41:23.881Z,-6.10
2022-12-18T07:43:50.713Z,-6.10
2022-12-18T07:46:17.999Z,-6.10
2022-12-18T07:48:49.237Z,-6.10
2022-12-18T07:51:17.269Z,-6.10
2022-12-18T07:53:45.504Z,-6.10
2022-12-18T07:56:29.987Z,-6.10
2022-12-18T07:58:58.285Z,-6.10
2022-12-18T08:01:25.400Z,-6.00
2022-12-18T08:03:52.777Z,-6.10
2022-12-18T08:06:22.457Z,-6.00
2022-12-18T08:08:55.703Z,-6.00
2022-12-18T08:11:23.324Z,-6.00
2022-12-18T08:13:50.085Z,-6.00
2022-12-18T08:16:17.239Z,-6.00
2022-12-18T08:18:44.090Z,-6.00
2022-12-18T08:21:18.056Z,-6.00
2022-12-18T08:23:45.402Z,-6.00
2022-12-18T08:26:12.770Z,-5.90
2022-12-18T08:28:39.750Z,-5.80
2022-12-18T08:31:07.337Z,-5.80
2022-12-18T08:33:36.031Z,-5.80
2022-12-18T08:36:04.119Z,-5.80
2022-12-18T08:38:32.231Z,-5.80
2022-12-18T08:41:06.245Z,-5.80
2022-12-18T08:43:52.067Z,-5.80
2022-12-18T08:46:20.397Z,-5.70
2022-12-18T08:48:47.334Z,-5.70
2022-12-18T08:51:14.613Z,-5.70
2022-12-18T08:53:41.698Z,-5.70
2022-12-18T08:56:08.951Z,-5.60
2022-12-18T08:58:35.745Z,-5.60
2022-12-18T09:01:04.534Z,-5.50
2022-12-18T09:03:32.521Z,-5.50
2022-12-18T09:05:59.563Z,-5.50
2022-12-18T09:08:26.981Z,-5.60
2022-12-18T09:10:53.899Z,-5.50
2022-12-18T09:13:20.738Z,-5.50
2022-12-18T09:15:49.956Z,-5.40
2022-12-18T09:18:17.993Z,-5.30
2022-12-18T09:20:45.364Z,-5.30
2022-12-18T09:23:12.725Z,-5.30
2022-12-18T09:25:40.521Z,-5.20
2022-12-18T09:28:11.899Z,-5.20
2022-12-18T09:30:40.252Z,-5.20
2022-12-18T09:33:07.178Z,-5.10
2022-12-18T09:35:40.536Z,-5.10
2022-12-18T09:38:07.844Z,-5.10
2022-12-18T09:40:37.234Z,-5.10
2022-12-18T09:43:07.609Z,-5.10
2022-12-18T09:45:48.230Z,-5.00
2022-12-18T09:48:40.465Z,-5.00
2022-12-18T09:51:31.829Z,-5.00
2022-12-18T09:54:03.017Z,-4.90
2022-12-18T09:56:35.546Z,-4.90
2022-12-18T09:59:03.960Z,-4.80
2022-12-18T10:01:41.471Z,-4.80
2022-12-18T10:04:10.523Z,-4.80
2022-12-18T10:06:49.395Z,-4.80
2022-12-18T10:10:01.083Z,-4.70
2022-12-18T10:12:40.028Z,-4.70
2022-12-18T10:15:06.932Z,-4.70
2022-12-18T10:17:36.661Z,-4.60
2022-12-18T10:20:11.125Z,-4.60
2022-12-18T10:22:50.309Z,-4.70
2022-12-18T10:25:37.716Z,-4.60
2022-12-18T10:28:15.599Z,-4.60
2022-12-18T10:30:43.680Z,-4.50
2022-12-18T10:33:17.593Z,-4.50
2022-12-18T10:35:45.374Z,-4.50
2022-12-18T10:38:18.440Z,-4.50
2022-12-18T10:40:55.926Z,-4.40
2022-12-18T10:43:30.177Z,-4.30
2022-12-18T10:46:03.561Z,-4.30
2022-12-18T10:48:31.884Z,-4.30
2022-12-18T10:51:10.809Z,-4.30
2022-12-18T10:53:41.521Z,-4.20
2022-12-18T10:56:08.299Z,-4.10
2022-12-18T10:58:37.436Z,-4.10
2022-12-18T11:01:04.263Z,-4.10
2022-12-18T11:03:37.276Z,-4.00
2022-12-18T11:06:07.391Z,-4.00
2022-12-18T11:08:34.396Z,-3.90
2022-12-18T11:11:01.599Z,-3.90
2022-12-18T11:13:30.684Z,-3.90
2022-12-18T11:15:57.648Z,-3.80
2022-12-18T11:18:27.838Z,-3.80
2022-12-18T11:20:59.081Z,-3.80
2022-12-18T11:23:26.611Z,-3.70
2022-12-18T11:26:02.770Z,-3.80
2022-12-18T11:28:43.432Z,-3.70
2022-12-18T11:31:22.144Z,-3.60
2022-12-18T11:34:26.758Z,-3.60
2022-12-18T11:36:49.536Z,-3.60
2022-12-18T11:39:20.898Z,-3.60
2022-12-18T11:42:13.045Z,-3.60
2022-12-18T11:44:50.603Z,-3.60
2022-12-18T11:47:35.605Z,-3.50
2022-12-18T11:50:04.273Z,-3.60
2022-12-18T11:52:41.640Z,-3.40
2022-12-18T11:55:14.453Z,-3.40
2022-12-18T11:58:19.756Z,-3.40
2022-12-18T12:01:29.210Z,-3.30
2022-12-18T12:04:20.724Z,-3.30
2022-12-18T12:07:02.762Z,-3.20
2022-12-18T12:10:00.725Z,-3.20
2022-12-18T12:12:50.241Z,-3.20
2022-12-18T12:15:36.961Z,-3.10
2022-12-18T12:18:34.372Z,-3.10
2022-12-18T12:21:20.723Z,-3.10
2022-12-18T12:23:56.345Z,-3.10
2022-12-18T12:26:23.105Z,-3.00
2022-12-18T12:29:10.378Z,-2.90
2022-12-18T12:31:56.489Z,-2.90
2022-12-18T12:35:00.947Z,-2.90
2022-12-18T12:37:42.019Z,-2.90
2022-12-18T12:40:40.994Z,-2.80
2022-12-18T12:43:15.258Z,-2.80
2022-12-18T12:45:56.199Z,-2.80
2022-12-18T12:48:34.401Z,-2.70
2022-12-18T12:51:04.591Z,-2.70
2022-12-18T12:53:37.485Z,-2.60
2022-12-18T12:56:05.691Z,-2.60
2022-12-18T12:58:35.335Z,-2.60
2022-12-18T13:01:05.220Z,-2.50
2022-12-18T13:03:44.287Z,-2.50
2022-12-18T13:06:30.531Z,-2.50
2022-12-18T13:09:02.285Z,-2.40
2022-12-18T13:12:00.464Z,-2.40
2022-12-18T13:14:32.428Z,-2.40
2022-12-18T13:17:38.442Z,-2.40
2022-12-18T13:20:15.909Z,-2.30
2022-12-18T13:22:48.719Z,-2.30
2022-12-18T13:25:34.548Z,-2.30
2022-12-18T13:28:03.762Z,-2.30
2022-12-18T13:30:33.338Z,-2.30
2022-12-18T13:33:15.388Z,-2.20
2022-12-18T13:35:53.770Z,-2.20
2022-12-18T13:38:26.117Z,-2.20
2022-12-18T13:40:57.026Z,-2.20
2022-12-18T13:43:28.369Z,-2.10
2022-12-18T13:46:02.919Z,-2.10
2022-12-18T13:48:33.740Z,-2.10
2022-12-18T13:51:07.378Z,-2.10
2022-12-18T13:53:39.937Z,-2.00
2022-12-18T13:56:07.442Z,-2.00
2022-12-18T13:58:34.340Z,-2.00
2022-12-18T14:01:03.098Z,-2.00
2022-12-18T14:03:31.632Z,-1.90
2022-12-18T14:06:08.179Z,-1.90
2022-12-18T14:08:43.267Z,-1.90
2022-12-18T14:11:24.026Z,-1.90
2022-12-18T14:13:53.835Z,-1.80
2022-12-18T14:16:20.971Z,-1.80
2022-12-18T14:18:53.604Z,-1.80
2022-12-18T14:21:23.743Z,-1.80
2022-12-18T14:24:07.720Z,-1.80
2022-12-18T14:26:34.611Z,-1.70
2022-12-18T14:29:31.160Z,-1.70
2022-12-18T14:32:17.521Z,-1.70
2022-12-18T14:34:52.686Z,-1.70
2022-12-18T14:37:23.619Z,-1.70
2022-12-18T14:40:13.805Z,-1.70
2022-12-18T14:42:40.668Z,-1.70
2022-12-18T14:45:42.313Z,-1.70
2022-12-18T14:48:12.771Z,-1.60
2022-12-18T14:50:41.071Z,-1.60
2022-12-18T14:53:20.940Z,-1.60
2022-12-18T14:55:48.916Z,-1.60
2022-12-18T14:58:17.236Z,-1.60
2022-12-18T15:00:44.732Z,-1.60
2022-12-18T15:03:11.588Z,-1.60
2022-12-18T15:05:38.479Z,-1.50
2022-12-18T15:08:42.894Z,-1.60
2022-12-18T15:11:36.911Z,-1.50
2022-12-18T15:14:42.708Z,-1.50
2022-12-18T15:17:23.440Z,-1.50
2022-12-18T15:19:53.817Z,-1.50
2022-12-18T15:22:29.175Z,-1.50
2022-12-18T15:24:57.196Z,-1.50
2022-12-18T15:27:36.770Z,-1.50
2022-12-18T15:30:09.764Z,-1.40
2022-12-18T15:32:41.148Z,-1.40
2022-12-18T15:35:15.414Z,-1.40
2022-12-18T15:37:42.515Z,-1.40
2022-12-18T15:40:23.883Z,-1.40
2022-12-18T15:43:12.961Z,-1.40
2022-12-18T15:45:39.822Z,-1.30
2022-12-18T15:48:20.970Z,-1.30
2022-12-18T15:50:47.757Z,-1.30
2022-12-18T15:53:14.560Z,-1.30
2022-12-18T15:56:01.278Z,-1.30
2022-12-18T15:58:28.307Z,-1.30
2022-12-18T16:00:56.878Z,-1.30
2022-12-18T16:03:23.717Z,-1.30
2022-12-18T16:05:51.409Z,-1.20
2022-12-18T16:08:18.300Z,-1.20
2022-12-18T16:10:45.065Z,-1.20
2022-12-18T16:13:13.806Z,-1.20
2022-12-18T16:15:40.597Z,-1.20
2022-12-18T16:18:07.597Z,-1.20
2022-12-18T16:20:34.624Z,-1.20
2022-12-18T16:23:02.291Z,-1.20
2022-12-18T16:25:29.586Z,-1.20
2022-12-18T16:27:57.046Z,-1.10
2022-12-18T16:30:31.214Z,-1.10
2022-12-18T16:33:05.699Z,-1.10
2022-12-18T16:35:34.828Z,-1.10
2022-12-18T16:38:01.636Z,-1.10
2022-12-18T16:40:28.680Z,-1.10
2022-12-18T16:42:55.555Z,-1.10
2022-12-18T16:45:22.363Z,-1.00
2022-12-18T16:47:49.255Z,-1.00
2022-12-18T16:50:16.216Z,-1.00
2022-12-18T16:52:43.959Z,-1.00
2022-12-18T16:55:11.355Z,-1.00
2022-12-18T16:57:38.240Z,-1.00
2022-12-18T17:00:06.257Z,-1.00
2022-12-18T17:02:33.757Z,-1.00
2022-12-18T17:05:00.952Z,-0.90
2022-12-18T17:07:28.706Z,-0.90
2022-12-18T17:09:55.767Z,-0.90
2022-12-18T17:12:23.057Z,-0.90
2022-12-18T17:14:49.978Z,-0.90
2022-12-18T17:17:22.349Z,-0.90
2022-12-18T17:19:50.818Z,-0.80
2022-12-18T17:22:18.294Z,-0.80
2022-12-18T17:24:46.687Z,-0.80
2022-12-18T17:27:13.482Z,-0.80
2022-12-18T17:29:46.750Z,-0.80
2022-12-18T17:32:15.248Z,-0.80
2022-12-18T17:34:42.077Z,-0.80
2022-12-18T17:37:09.169Z,-0.80
2022-12-18T17:39:36.098Z,-0.80
2022-12-18T17:42:03.101Z,-0.80
2022-12-18T17:44:30.004Z,-0.80
2022-12-18T17:46:56.859Z,-0.80
2022-12-18T17:49:23.683Z,-0.80
2022-12-18T17:51:51.525Z,-0.70
2022-12-18T17:54:18.377Z,-0.70
2022-12-18T17:56:45.477Z,-0.70
2022-12-18T17:59:12.582Z,-0.70
2022-12-18T18:01:44.379Z,-0.70
2022-12-18T18:04:12.799Z,-0.70
2022-12-18T18:06:39.807Z,-0.70
2022-12-18T18:09:08.643Z,-0.70
2022-12-18T18:12:02.936Z,-0.70
2022-12-18T18:14:30.257Z,-0.70
2022-12-18T18:17:03.823Z,-0.70
2022-12-18T18:19:32.376Z,-0.60
2022-12-18T18:21:59.216Z,-0.60
2022-12-18T18:24:26.168Z,-0.60
2022-12-18T18:26:59.617Z,-0.60
2022-12-18T18:29:32.904Z,-0.60
2022-12-18T18:31:59.943Z,-0.60
2022-12-18T18:34:29.032Z,-0.60
2022-12-18T18:36:56.138Z,-0.60
2022-12-18T18:39:22.988Z,-0.60
2022-12-18T18:41:49.924Z,-0.60
2022-12-18T18:44:18.194Z,-0.50
2022-12-18T18:46:45.399Z,-0.50
2022-12-18T18:49:13.833Z,-0.50
2022-12-18T18:51:41.450Z,-0.60
2022-12-18T18:54:08.814Z,-0.60
2022-12-18T18:59:27.791Z,-0.50
2022-12-18T19:02:04.409Z,-0.50
2022-12-18T19:04:36.540Z,-0.50
2022-12-18T19:07:07.375Z,-0.50
2022-12-18T19:09:36.264Z,-0.40
2022-12-18T19:12:22.688Z,-0.40
2022-12-18T19:14:50.078Z,-0.40
2022-12-18T19:17:16.963Z,-0.40
2022-12-18T19:19:44.246Z,-0.40
2022-12-18T19:22:11.333Z,-0.40
2022-12-18T19:24:39.611Z,-0.40
2022-12-18T19:27:06.401Z,-0.40
2022-12-18T19:29:33.521Z,-0.40
2022-12-18T19:32:00.671Z,-0.40
2022-12-18T19:34:27.776Z,-0.30
2022-12-18T19:36:59.752Z,-0.30
2022-12-18T19:39:26.983Z,-0.30
2022-12-18T19:41:55.089Z,-0.30
2022-12-18T19:44:21.964Z,-0.30
2022-12-18T19:46:53.327Z,-0.30
2022-12-18T19:49:20.169Z,-0.30
2022-12-18T19:51:47.942Z,-0.30
2022-12-18T19:54:17.858Z,-0.30
2022-12-18T19:56:45.676Z,-0.20
2022-12-18T19:59:12.968Z,-0.20
2022-12-18T20:01:40.299Z,-0.20
2022-12-18T20:04:07.453Z,-0.20
2022-12-18T20:06:36.528Z,-0.20
2022-12-18T20:09:06.250Z,-0.20
2022-12-18T20:11:38.391Z,-0.20
2022-12-18T20:14:14.816Z,-0.20
2022-12-18T20:16:46.629Z,-0.10
2022-12-18T20:19:14.340Z,-0.10
2022-12-18T20:21:42.904Z,-0.10
2022-12-18T20:24:10.258Z,-0.10
2022-12-18T20:26:37.223Z,-0.10
2022-12-18T20:29:04.075Z,-0.10
2022-12-18T20:31:30.967Z,-0.10
2022-12-18T20:34:01.694Z,-0.10
2022-12-18T20:36:31.760Z,0.00
2022-12-18T20:39:01.564Z,0.00
2022-12-18T20:41:31.618Z,0.00
2022-12-18T20:44:05.507Z,0.00
2022-12-18T20:46:34.334Z,0.00
2022-12-18T20:49:01.133Z,0.00
2022-12-18T20:51:29.227Z,0.10
2022-12-18T20:53:56.581Z,0.10
2022-12-18T20:56:23.837Z,0.10
2022-12-18T20:58:54.868Z,0.10
2022-12-18T21:01:23.352Z,0.20
2022-12-18T21:03:51.166Z,0.20
2022-12-18T21:06:20.032Z,0.10
2022-12-18T21:08:47.620Z,0.20
2022-12-18T21:11:44.724Z,0.20
2022-12-18T21:14:14.715Z,0.20
2022-12-18T21:16:43.957Z,0.20
2022-12-18T21:19:12.973Z,0.30
2022-12-18T21:21:40.150Z,0.30
2022-12-18T21:24:09.643Z,0.30
2022-12-18T21:26:43.403Z,0.30
2022-12-18T21:29:15.291Z,0.30
2022-12-18T21:31:42.521Z,0.40
2022-12-18T21:34:16.008Z,0.40
2022-12-18T21:36:42.739Z,0.40
2022-12-18T21:39:10.383Z,0.40
2022-12-18T21:41:55.819Z,0.50
2022-12-18T21:44:24.017Z,0.50
2022-12-18T21:46:55.837Z,0.50
2022-12-18T21:49:24.418Z,0.50
2022-12-18T21:51:53.215Z,0.50
2022-12-18T21:54:20.415Z,0.60
2022-12-18T21:56:55.560Z,0.60
2022-12-18T21:59:25.620Z,0.60
2022-12-18T22:01:54.030Z,0.70
2022-12-18T22:04:21.353Z,0.70
2022-12-18T22:06:48.814Z,0.80
2022-12-18T22:09:18.684Z,0.80
2022-12-18T22:11:46.087Z,0.70
2022-12-18T22:14:14.815Z,0.80
2022-12-18T22:16:42.439Z,1.00
2022-12-18T22:19:11.437Z,0.90
2022-12-18T22:21:40.428Z,0.90
2022-12-18T22:24:15.756Z,1.00
2022-12-18T22:26:43.334Z,1.00
2022-12-18T22:29:33.952Z,1.10
2022-12-18T22:32:02.873Z,1.10
2022-12-18T22:34:34.216Z,1.10
2022-12-18T22:37:03.465Z,1.10
2022-12-18T22:39:30.516Z,1.20
2022-12-18T22:41:57.884Z,1.20
2022-12-18T22:44:24.814Z,1.10
2022-12-18T22:47:05.460Z,1.20
2022-12-18T22:49:35.140Z,1.30
2022-12-18T22:52:03.748Z,1.40
2022-12-18T22:54:32.890Z,1.40
2022-12-18T22:57:03.851Z,1.50
2022-12-18T22:59:34.023Z,1.50
2022-12-18T23:02:03.870Z,1.50
2022-12-18T23:04:36.214Z,1.60
2022-12-18T23:07:07.040Z,1.60
2022-12-18T23:09:33.993Z,1.60
2022-12-18T23:12:01.186Z,1.60
2022-12-18T23:14:30.739Z,1.70
2022-12-18T23:16:57.682Z,1.70
2022-12-18T23:19:25.471Z,1.80
2022-12-18T23:21:52.243Z,1.80
2022-12-18T23:24:21.583Z,1.80
2022-12-18T23:26:48.372Z,1.90
2022-12-18T23:29:15.202Z,1.90
2022-12-18T23:31:42.075Z,1.90
2022-12-18T23:34:12.491Z,2.00
2022-12-18T23:36:46.439Z,2.10
2022-12-18T23:39:15.445Z,2.10
2022-12-18T23:41:57.305Z,2.00
2022-12-18T23:44:24.225Z,2.10
2022-12-18T23:46:51.018Z,2.10
2022-12-18T23:49:17.801Z,2.10
2022-12-18T23:51:44.588Z,2.20
2022-12-18T23:54:11.403Z,2.10
2022-12-18T23:56:38.208Z,2.10
2022-12-18T23:59:05.096Z,2.20
